LFMP/PGF METAR and TAF weather

Enter ICAO airport designator
Station Type Date Time Source
LFMP METAR 2020/07/03 12:30 UTC NOAA

LFMP 031230Z AUTO 32017KT 300V360 CAVOK 25/09 Q1019 TEMPO 32020G35KT


Station Type Date Time Source
LFMP Decoded METAR 2020/07/03 12:30 UTC NOAA

Perpignan, France (LFMP) 42-44N 002-52E 48M
Jul 03, 2020 - 08:30 AM EDT / 2020.07.03 1230 UTC
Wind: from the NW (320 degrees) at 20 MPH (17 KT) (direction variable):0
Visibility: greater than 7 mile(s):0
Temperature: 77 F (25 C)
Dew Point: 48 F (9 C)
Relative Humidity: 36%
Pressure (altimeter): 30.09 in. Hg (1019 hPa)
ob: LFMP 031230Z AUTO 32017KT 300V360 CAVOK 25/09 Q1019 TEMPO 32020G35KT
cycle: 12

Station Type Date Time Source
LFMP TAF 2020/07/03 09:44 UTC NOAA

TAF LFMP 030800Z 0309/0409 30015G25KT CAVOK
TEMPO 0309/0318 32020G35KT
BECMG 0400/0402 32010KT

Example: see airport list